METAR Data
IDs: Format: Raw Decoded Include TAF

Data at: 1238 UTC 26 Feb 2021

KDAY 261156Z 08010KT 9SM BKN250 M02/M07 A3031 RMK AO2 SLP273 T10221067 10000 21044 58007